Time;durP1;ratioP1;P1;durP2;ratioP2;P2;SDS_P1;SDS_P2;PMS_P1;PMS_P2;Temp;Humidity;BMP_temperature;BMP_pressure;BME280_temperature;BME280_humidity;BME280_pressure;Samples;Min_cycle;Max_cycle;Signal;HPM_P1;HPM_P2
2022/10/30 00:01:10;;;;;;;;;;;16.90;99.90;;;;;;5063685;28;19943;-78
2022/10/30 00:03:37;;;;;;;;;;;16.90;99.90;;;;;;5062659;28;19936;-76
2022/10/30 00:06:05;;;;;;;;;;;16.80;99.90;;;;;;5062545;28;19962;-75
2022/10/30 00:08:33;;;;;;;;;;;16.80;99.90;;;;;;5062321;28;20023;-75
2022/10/30 00:11:04;;;;;;;;;;;16.80;99.90;;;;;;5062370;28;19933;-75
2022/10/30 00:13:31;;;;;;;;;;;16.80;99.90;;;;;;5062775;28;19939;-75
2022/10/30 00:15:58;;;;;;;;;;;16.70;99.90;;;;;;5062100;28;19941;-75
2022/10/30 00:18:24;;;;;;;;;;;16.80;99.90;;;;;;5057780;28;19932;-75
2022/10/30 00:20:51;;;;;;;;;;;16.80;99.90;;;;;;5056907;28;20014;-77
2022/10/30 00:23:19;;;;;;;;;;;16.80;99.90;;;;;;5057201;28;19962;-75
2022/10/30 00:25:47;;;;;;;;;;;16.80;99.90;;;;;;5057061;28;19932;-75
2022/10/30 00:28:13;;;;;;;;;;;16.90;99.90;;;;;;5055910;28;20405;-75
2022/10/30 00:30:40;;;;;;;;;;;18.70;99.90;;;;;;5056830;28;20158;-75
2022/10/30 00:33:07;;;;;;;;;;;16.90;99.90;;;;;;5060635;28;19933;-75
2022/10/30 00:35:34;;;;;;;;;;;17.60;99.90;;;;;;5063236;28;19944;-75
2022/10/30 00:38:02;;;;;;;;;;;16.90;99.90;;;;;;5050185;28;19928;-76
2022/10/30 00:40:29;;;;;;;;;;;16.80;99.90;;;;;;5056091;28;19937;-75
2022/10/30 00:42:57;;;;;;;;;;;16.80;99.90;;;;;;5056797;28;20027;-75
2022/10/30 00:45:24;;;;;;;;;;;16.80;99.90;;;;;;5056714;28;19933;-76
2022/10/30 00:47:52;;;;;;;;;;;16.80;99.90;;;;;;5050797;28;19929;-75
2022/10/30 00:50:20;;;;;;;;;;;16.80;99.90;;;;;;5054375;28;19939;-75
2022/10/30 00:52:48;;;;;;;;;;;16.70;99.90;;;;;;5066192;28;19935;-75
2022/10/30 00:55:18;;;;;;;;;;;16.70;99.90;;;;;;5056536;28;19932;-75
2022/10/30 00:57:46;;;;;;;;;;;16.70;99.90;;;;;;5056558;28;20428;-76
2022/10/30 01:00:14;;;;;;;;;;;16.70;99.90;;;;;;5065407;28;19964;-76
2022/10/30 01:02:41;;;;;;;;;;;16.60;99.90;;;;;;5055672;28;19966;-76
2022/10/30 01:05:08;;;;;;;;;;;16.60;99.90;;;;;;5066340;28;19937;-76
2022/10/30 01:07:35;;;;;;;;;;;16.60;99.90;;;;;;5067365;28;20023;-76
2022/10/30 01:10:03;;;;;;;;;;;16.60;99.90;;;;;;5066383;28;19948;-77
2022/10/30 01:12:30;;;;;;;;;;;16.60;99.90;;;;;;5065526;28;19933;-75
2022/10/30 01:14:58;;;;;;;;;;;16.60;99.90;;;;;;5067086;28;19960;-75
2022/10/30 01:17:34;;;;;;;;;;;16.60;99.90;;;;;;5055997;28;19998;-75
2022/10/30 01:20:09;;;;;;;;;;;16.60;99.90;;;;;;5069909;28;19976;-76
2022/10/30 01:22:45;;;;;;;;;;;16.60;99.90;;;;;;5072042;28;19940;-75
2022/10/30 01:25:17;;;;;;;;;;;16.60;99.90;;;;;;5071107;28;20044;-75
2022/10/30 01:27:58;;;;;;;;;;;16.60;99.90;;;;;;5072054;28;19932;-75
2022/10/30 01:30:35;;;;;;;;;;;16.60;99.90;;;;;;5070499;28;19990;-75
2022/10/30 01:33:11;;;;;;;;;;;16.50;99.90;;;;;;5071513;28;19932;-75
2022/10/30 01:35:40;;;;;;;;;;;16.50;99.90;;;;;;5062166;28;20358;-75
2022/10/30 01:38:11;;;;;;;;;;;16.40;99.90;;;;;;5068899;28;20030;-76
2022/10/30 01:40:38;;;;;;;;;;;16.40;99.90;;;;;;5065579;28;19932;-78
2022/10/30 01:43:05;;;;;;;;;;;16.40;99.90;;;;;;5070541;28;19967;-77
2022/10/30 01:45:51;;;;;;;;;;;16.30;99.90;;;;;;5062489;28;19936;-79
2022/10/30 01:48:28;;;;;;;;;;;16.30;99.90;;;;;;5059444;28;19939;-77
2022/10/30 01:51:03;;;;;;;;;;;16.30;99.90;;;;;;5067099;28;20535;-78
2022/10/30 01:53:37;;;;;;;;;;;16.20;99.90;;;;;;5054997;28;20308;-78
2022/10/30 01:56:12;;;;;;;;;;;16.20;99.90;;;;;;5065866;28;19933;-77
2022/10/30 01:58:43;;;;;;;;;;;16.10;99.90;;;;;;5056036;28;19932;-78
2022/10/30 02:01:10;;;;;;;;;;;15.80;99.90;;;;;;5064008;28;19933;-77
2022/10/30 02:03:38;;;;;;;;;;;16.10;99.90;;;;;;5065058;28;19932;-78
2022/10/30 02:06:05;;;;;;;;;;;16.00;99.90;;;;;;5066240;28;19932;-77
2022/10/30 02:08:32;;;;;;;;;;;16.00;99.90;;;;;;5055718;28;20656;-77
2022/10/30 02:10:59;;;;;;;;;;;15.90;99.90;;;;;;5068825;28;20007;-78
2022/10/30 02:13:36;;;;;;;;;;;15.90;99.90;;;;;;5072230;28;19938;-78
2022/10/30 02:16:03;;;;;;;;;;;15.90;99.90;;;;;;5054591;28;19928;-78
2022/10/30 02:18:29;;;;;;;;;;;15.80;99.90;;;;;;5067587;28;19924;-78
2022/10/30 02:20:57;;;;;;;;;;;15.80;99.90;;;;;;5059096;28;19939;-78
2022/10/30 02:23:24;;;;;;;;;;;15.70;99.90;;;;;;5058859;28;19965;-82
2022/10/30 02:25:51;;;;;;;;;;;15.70;99.90;;;;;;5059205;28;20407;-78
2022/10/30 02:28:18;;;;;;;;;;;15.60;99.90;;;;;;5069007;28;19925;-78
2022/10/30 02:30:44;;;;;;;;;;;15.50;99.90;;;;;;5061490;28;19933;-77
2022/10/30 02:33:11;;;;;;;;;;;15.50;99.90;;;;;;5069929;28;19939;-77
2022/10/30 02:35:38;;;;;;;;;;;15.50;99.90;;;;;;5060833;28;19936;-77
2022/10/30 02:38:06;;;;;;;;;;;15.40;99.90;;;;;;5053285;28;19948;-77
2022/10/30 02:40:32;;;;;;;;;;;15.30;99.90;;;;;;5053844;28;19932;-78
2022/10/30 02:42:59;;;;;;;;;;;15.30;99.90;;;;;;5053551;28;19976;-78
2022/10/30 02:45:26;;;;;;;;;;;15.30;99.90;;;;;;5070020;28;20394;-78
2022/10/30 02:47:52;;;;;;;;;;;15.20;99.90;;;;;;5061957;28;20477;-77
2022/10/30 02:50:19;;;;;;;;;;;15.20;99.90;;;;;;5073263;28;20001;-77
2022/10/30 02:52:46;;;;;;;;;;;15.10;99.90;;;;;;5066880;28;19937;-78
2022/10/30 02:55:14;;;;;;;;;;;15.10;99.90;;;;;;5065869;28;20034;-77
2022/10/30 02:57:41;;;;;;;;;;;15.10;99.90;;;;;;5076356;28;20309;-78
2022/10/30 03:00:08;;;;;;;;;;;15.00;99.90;;;;;;5062975;28;19932;-75
2022/10/30 03:02:35;;;;;;;;;;;15.00;99.90;;;;;;5072691;28;19932;-75
2022/10/30 03:05:02;;;;;;;;;;;14.90;99.90;;;;;;5055751;28;19932;-76
2022/10/30 03:07:29;;;;;;;;;;;14.80;99.90;;;;;;5076005;28;20051;-76
2022/10/30 03:09:55;;;;;;;;;;;14.80;99.90;;;;;;5060067;28;19943;-76
2022/10/30 03:12:23;;;;;;;;;;;14.80;99.90;;;;;;5055712;28;19932;-76
2022/10/30 03:14:52;;;;;;;;;;;14.70;99.90;;;;;;5063441;28;19944;-76
2022/10/30 03:17:18;;;;;;;;;;;14.70;99.90;;;;;;5063620;28;19936;-76
2022/10/30 03:19:46;;;;;;;;;;;14.60;99.90;;;;;;5064383;28;19932;-76
2022/10/30 03:22:13;;;;;;;;;;;14.60;99.90;;;;;;5062653;28;19932;-77
2022/10/30 03:24:40;;;;;;;;;;;14.50;99.90;;;;;;5061049;28;20321;-77
2022/10/30 03:27:07;;;;;;;;;;;14.50;99.90;;;;;;5073371;28;19933;-77
2022/10/30 03:29:35;;;;;;;;;;;14.40;99.90;;;;;;5063124;28;19972;-76
2022/10/30 03:32:03;;;;;;;;;;;14.40;99.90;;;;;;5072430;28;19933;-76
2022/10/30 03:34:34;;;;;;;;;;;14.40;99.90;;;;;;5073875;28;19940;-76
2022/10/30 03:37:05;;;;;;;;;;;14.30;99.90;;;;;;5058676;28;19938;-77
2022/10/30 03:39:31;;;;;;;;;;;14.30;99.90;;;;;;5071920;28;19943;-77
2022/10/30 03:41:58;;;;;;;;;;;14.20;99.90;;;;;;5071413;28;20681;-76
2022/10/30 03:44:25;;;;;;;;;;;14.10;99.90;;;;;;5061437;28;20320;-77
2022/10/30 03:46:53;;;;;;;;;;;12.30;99.90;;;;;;5063705;28;20437;-76
2022/10/30 03:49:40;;;;;;;;;;;14.00;99.90;;;;;;5072799;28;20032;-75
2022/10/30 03:52:11;;;;;;;;;;;13.90;99.90;;;;;;5062433;28;19943;-76
2022/10/30 03:54:37;;;;;;;;;;;13.80;99.90;;;;;;5065381;28;19932;-75
2022/10/30 03:57:04;;;;;;;;;;;13.70;99.90;;;;;;5064371;28;19944;-75
2022/10/30 03:59:40;;;;;;;;;;;13.70;99.90;;;;;;5065505;28;20351;-76
2022/10/30 04:02:28;;;;;;;;;;;13.60;99.90;;;;;;5057341;28;19968;-75
2022/10/30 04:04:55;;;;;;;;;;;13.50;99.90;;;;;;5063651;28;19929;-75
2022/10/30 04:07:22;;;;;;;;;;;13.40;99.90;;;;;;5064326;28;20015;-75
2022/10/30 04:09:49;;;;;;;;;;;13.40;99.90;;;;;;5073277;28;19932;-76
2022/10/30 04:12:16;;;;;;;;;;;13.30;99.90;;;;;;5064343;28;19933;-76
2022/10/30 04:14:42;;;;;;;;;;;13.20;99.90;;;;;;5056236;28;19944;-76
2022/10/30 04:17:09;;;;;;;;;;;13.20;99.90;;;;;;5064738;28;20632;-76
2022/10/30 04:19:37;;;;;;;;;;;13.10;99.90;;;;;;5062151;28;20026;-76
2022/10/30 04:22:04;;;;;;;;;;;13.10;99.90;;;;;;5072095;28;19933;-76
2022/10/30 04:24:31;;;;;;;;;;;13.00;99.90;;;;;;5059821;28;19980;-76
2022/10/30 04:26:58;;;;;;;;;;;13.00;99.90;;;;;;5069626;28;20014;-77
2022/10/30 04:29:24;;;;;;;;;;;12.90;99.90;;;;;;5068179;28;20372;-76
2022/10/30 04:31:52;;;;;;;;;;;12.90;99.90;;;;;;5057856;28;20588;-76
2022/10/30 04:34:19;;;;;;;;;;;12.80;99.90;;;;;;5072177;28;19928;-76
2022/10/30 04:36:47;;;;;;;;;;;12.80;99.90;;;;;;5059628;28;19940;-76
2022/10/30 04:39:14;;;;;;;;;;;12.80;99.90;;;;;;5051454;28;20019;-75
2022/10/30 04:41:42;;;;;;;;;;;12.70;99.90;;;;;;5067731;28;20456;-75
2022/10/30 04:44:15;;;;;;;;;;;12.70;99.90;;;;;;5051338;28;19932;-75
2022/10/30 04:46:42;;;;;;;;;;;12.60;99.90;;;;;;5067415;28;19932;-75
2022/10/30 04:49:10;;;;;;;;;;;12.50;99.90;;;;;;5067993;28;20328;-76
2022/10/30 04:51:37;;;;;;;;;;;12.50;99.90;;;;;;5050999;28;20070;-77
2022/10/30 04:54:06;;;;;;;;;;;12.50;99.90;;;;;;5067625;28;19932;-76
2022/10/30 04:56:34;;;;;;;;;;;12.40;99.90;;;;;;5070369;28;19936;-76
2022/10/30 04:59:01;;;;;;;;;;;12.40;99.90;;;;;;5060745;28;20470;-76
2022/10/30 05:01:27;;;;;;;;;;;12.40;99.90;;;;;;5055940;28;19948;-76
2022/10/30 05:03:57;;;;;;;;;;;12.50;99.90;;;;;;5073800;28;20114;-76
2022/10/30 05:06:26;;;;;;;;;;;12.50;99.90;;;;;;5076411;28;20487;-75
2022/10/30 05:08:54;;;;;;;;;;;12.50;99.90;;;;;;5074212;28;19980;-77
2022/10/30 05:11:54;;;;;;;;;;;12.50;99.90;;;;;;5066293;28;20538;-76
2022/10/30 05:14:21;;;;;;;;;;;12.50;99.90;;;;;;5065102;28;19935;-76
2022/10/30 05:16:48;;;;;;;;;;;12.50;99.90;;;;;;5056261;28;20009;-76
2022/10/30 05:19:15;;;;;;;;;;;12.50;99.90;;;;;;5057739;28;19933;-75
2022/10/30 05:21:50;;;;;;;;;;;12.50;99.90;;;;;;5081637;28;19942;-76
2022/10/30 05:24:17;;;;;;;;;;;12.40;99.90;;;;;;5081029;28;19969;-76
2022/10/30 05:26:45;;;;;;;;;;;12.40;99.90;;;;;;5056457;28;20424;-76
2022/10/30 05:29:13;;;;;;;;;;;12.30;99.90;;;;;;5061708;28;20031;-76
2022/10/30 05:31:40;;;;;;;;;;;12.40;99.90;;;;;;5060965;28;19924;-76
2022/10/30 05:34:16;;;;;;;;;;;12.40;99.90;;;;;;5063951;28;20572;-76
2022/10/30 05:36:45;;;;;;;;;;;12.30;99.90;;;;;;5054619;28;19932;-76
2022/10/30 05:39:13;;;;;;;;;;;12.30;99.90;;;;;;5059506;28;19932;-76
2022/10/30 05:41:45;;;;;;;;;;;12.30;99.90;;;;;;5062042;28;19928;-76
2022/10/30 05:44:13;;;;;;;;;;;13.80;99.90;;;;;;5047334;28;19929;-77
2022/10/30 05:46:43;;;;;;;;;;;12.20;99.90;;;;;;5048870;28;20019;-78
2022/10/30 05:49:24;;;;;;;;;;;12.20;99.90;;;;;;5056020;28;19935;-77
2022/10/30 05:51:51;;;;;;;;;;;12.20;99.90;;;;;;5062959;28;19932;-78
2022/10/30 05:54:18;;;;;;;;;;;12.20;99.90;;;;;;5053068;28;19929;-78
2022/10/30 05:56:59;;;;;;;;;;;12.10;99.90;;;;;;5046461;28;19928;-78
2022/10/30 05:59:28;;;;;;;;;;;12.10;99.90;;;;;;5059650;28;19933;-77
2022/10/30 06:01:58;;;;;;;;;;;12.00;99.90;;;;;;5067309;28;19955;-77
2022/10/30 06:04:25;;;;;;;;;;;12.00;99.90;;;;;;5047252;28;20003;-77
2022/10/30 06:06:51;;;;;;;;;;;12.00;99.90;;;;;;5044878;28;19929;-78
2022/10/30 06:09:18;;;;;;;;;;;11.90;99.90;;;;;;5064857;28;19935;-79
2022/10/30 06:12:11;;;;;;;;;;;11.90;99.90;;;;;;5055148;28;19944;-77
2022/10/30 06:15:01;;;;;;;;;;;11.90;99.90;;;;;;5047924;28;19928;-77
2022/10/30 06:17:30;;;;;;;;;;;11.80;99.90;;;;;;5055628;28;19935;-76
2022/10/30 06:20:21;;;;;;;;;;;11.80;99.90;;;;;;5047472;28;20333;-77
2022/10/30 06:23:02;;;;;;;;;;;11.80;99.90;;;;;;5050901;28;20012;-76
2022/10/30 06:25:51;;;;;;;;;;;11.80;99.90;;;;;;5071689;28;19974;-76
2022/10/30 06:28:25;;;;;;;;;;;11.80;99.90;;;;;;5050865;28;20007;-75
2022/10/30 06:30:55;;;;;;;;;;;11.80;99.90;;;;;;5070549;28;19929;-76
2022/10/30 06:33:21;;;;;;;;;;;11.80;99.90;;;;;;5056162;28;19952;-76
2022/10/30 06:35:51;;;;;;;;;;;11.80;99.90;;;;;;5052474;28;19929;-77
2022/10/30 06:38:19;;;;;;;;;;;11.80;99.90;;;;;;5041152;28;19983;-77
2022/10/30 06:40:48;;;;;;;;;;;11.80;99.90;;;;;;5048123;28;19929;-77
2022/10/30 06:43:34;;;;;;;;;;;11.80;99.90;;;;;;5049816;28;19932;-77
2022/10/30 06:46:09;;;;;;;;;;;11.90;99.90;;;;;;5061169;28;20034;-76
2022/10/30 06:48:39;;;;;;;;;;;11.90;99.90;;;;;;5041251;28;19928;-77
2022/10/30 06:51:06;;;;;;;;;;;11.50;99.90;;;;;;5046463;28;20075;-77
2022/10/30 06:53:39;;;;;;;;;;;11.90;99.90;;;;;;5060426;28;19968;-78
2022/10/30 06:56:29;;;;;;;;;;;12.00;99.90;;;;;;5043403;28;19962;-77
2022/10/30 06:59:18;;;;;;;;;;;12.10;99.90;;;;;;5054572;28;19928;-78
2022/10/30 07:01:52;;;;;;;;;;;12.30;99.90;;;;;;5048651;28;20023;-77
2022/10/30 07:04:25;;;;;;;;;;;12.50;99.90;;;;;;5049290;28;19964;-77
2022/10/30 07:06:53;;;;;;;;;;;12.80;99.90;;;;;;5041114;28;20028;-79
2022/10/30 07:09:21;;;;;;;;;;;13.10;99.90;;;;;;5068546;28;19975;-79
2022/10/30 07:11:49;;;;;;;;;;;13.40;99.90;;;;;;5071950;28;19924;-80
2022/10/30 07:14:24;;;;;;;;;;;13.60;99.90;;;;;;5050659;28;19970;-79
2022/10/30 07:17:00;;;;;;;;;;;13.90;99.90;;;;;;5052077;28;19940;-79
2022/10/30 07:19:29;;;;;;;;;;;14.10;99.90;;;;;;5068412;28;19930;-81
2022/10/30 07:21:57;;;;;;;;;;;14.30;99.90;;;;;;5058173;28;20172;-80
2022/10/30 07:24:24;;;;;;;;;;;14.50;99.90;;;;;;5044599;28;20360;-79
2022/10/30 07:27:14;;;;;;;;;;;14.70;99.90;;;;;;5050081;28;20079;-80
2022/10/30 07:29:46;;;;;;;;;;;15.00;99.90;;;;;;5045644;28;20094;-78
2022/10/30 07:32:22;;;;;;;;;;;15.20;99.90;;;;;;5059390;28;20428;-78
2022/10/30 07:34:52;;;;;;;;;;;15.40;99.90;;;;;;5045779;28;19960;-78
2022/10/30 07:37:34;;;;;;;;;;;15.80;99.90;;;;;;5048435;28;19936;-77
2022/10/30 07:40:15;;;;;;;;;;;15.80;99.90;;;;;;5050786;28;19933;-79
2022/10/30 07:43:03;;;;;;;;;;;16.00;99.90;;;;;;5033547;28;19971;-78
2022/10/30 07:45:30;;;;;;;;;;;16.10;99.90;;;;;;5048593;28;19932;-76
2022/10/30 07:48:18;;;;;;;;;;;16.30;99.90;;;;;;5053876;28;20016;-78
2022/10/30 07:50:53;;;;;;;;;;;16.50;99.90;;;;;;5046362;28;19925;-79
2022/10/30 07:53:20;;;;;;;;;;;16.70;99.90;;;;;;5072560;28;20449;-79
2022/10/30 07:55:48;;;;;;;;;;;17.00;99.90;;;;;;5059663;28;19936;-78
2022/10/30 07:58:33;;;;;;;;;;;17.30;99.90;;;;;;5045845;28;19932;-80
2022/10/30 08:01:15;;;;;;;;;;;17.50;99.90;;;;;;5041733;28;19940;-79
2022/10/30 08:03:44;;;;;;;;;;;17.70;99.90;;;;;;5063123;28;19994;-76
2022/10/30 08:06:15;;;;;;;;;;;17.90;99.90;;;;;;5069179;28;19933;-76
2022/10/30 08:08:43;;;;;;;;;;;18.10;99.90;;;;;;5072625;28;19957;-75
2022/10/30 08:11:24;;;;;;;;;;;18.30;99.90;;;;;;5078956;28;19933;-76
2022/10/30 08:13:53;;;;;;;;;;;18.60;99.90;;;;;;5075704;28;19984;-77
2022/10/30 08:16:19;;;;;;;;;;;18.70;99.90;;;;;;5069723;28;19940;-76
2022/10/30 08:18:48;;;;;;;;;;;18.90;99.90;;;;;;5057829;28;19973;-76
2022/10/30 08:21:14;;;;;;;;;;;19.10;99.90;;;;;;5057388;28;20417;-76
2022/10/30 08:23:53;;;;;;;;;;;19.20;99.90;;;;;;5065932;28;19944;-77
2022/10/30 08:26:20;;;;;;;;;;;19.30;99.90;;;;;;5055682;28;19933;-76
2022/10/30 08:28:47;;;;;;;;;;;19.30;99.90;;;;;;5060761;28;19929;-77
2022/10/30 08:31:14;;;;;;;;;;;19.30;99.90;;;;;;5060460;28;19932;-76
2022/10/30 08:34:01;;;;;;;;;;;19.30;99.90;;;;;;5053654;28;19949;-76
2022/10/30 08:36:48;;;;;;;;;;;19.30;99.90;;;;;;5053800;28;20030;-76
2022/10/30 08:39:16;;;;;;;;;;;19.30;99.90;;;;;;5049294;28;19939;-77
2022/10/30 08:41:56;;;;;;;;;;;19.20;99.90;;;;;;5025689;28;19954;-76
2022/10/30 08:44:23;;;;;;;;;;;19.20;99.90;;;;;;5049073;28;20011;-76
2022/10/30 08:47:08;;;;;;;;;;;19.20;99.90;;;;;;5053256;28;19994;-76
2022/10/30 08:49:37;;;;;;;;;;;19.10;99.90;;;;;;5064926;28;19979;-76
2022/10/30 08:52:07;;;;;;;;;;;19.00;99.90;;;;;;5050665;28;20040;-81
2022/10/30 08:54:34;;;;;;;;;;;19.00;99.90;;;;;;5057744;28;19982;-80
2022/10/30 08:57:00;;;;;;;;;;;19.00;99.90;;;;;;5050548;28;19973;-78
2022/10/30 08:59:27;;;;;;;;;;;19.00;99.90;;;;;;5051095;28;19960;-78
2022/10/30 09:01:57;;;;;;;;;;;19.00;99.90;;;;;;5065051;28;20250;-78
2022/10/30 09:04:52;;;;;;;;;;;19.20;99.90;;;;;;5044199;28;20389;-78
2022/10/30 09:07:55;;;;;;;;;;;19.20;99.90;;;;;;5050264;28;20258;-78
2022/10/30 09:10:42;;;;;;;;;;;19.30;99.90;;;;;;5051265;28;20320;-78
2022/10/30 09:13:10;;;;;;;;;;;19.30;99.90;;;;;;5069548;28;19968;-78
2022/10/30 09:15:37;;;;;;;;;;;19.60;99.90;;;;;;5060288;28;20034;-78
2022/10/30 09:18:12;;;;;;;;;;;19.60;99.90;;;;;;5049235;28;19990;-79
2022/10/30 09:20:40;;;;;;;;;;;19.70;99.90;;;;;;5060415;28;19969;-79
2022/10/30 09:23:07;;;;;;;;;;;19.70;99.90;;;;;;5060959;28;19928;-78
2022/10/30 09:25:34;;;;;;;;;;;19.80;99.90;;;;;;5051337;28;19964;-75
2022/10/30 09:28:24;;;;;;;;;;;19.90;99.90;;;;;;5043882;28;19937;-75
2022/10/30 09:31:23;;;;;;;;;;;19.90;99.90;;;;;;5047294;28;20607;-83
2022/10/30 09:33:50;;;;;;;;;;;20.10;99.90;;;;;;5063642;28;19935;-78
2022/10/30 09:36:45;;;;;;;;;;;20.10;99.90;;;;;;5058684;28;19942;-75
2022/10/30 09:39:11;;;;;;;;;;;20.20;99.90;;;;;;5046365;28;19971;-76
2022/10/30 09:41:45;;;;;;;;;;;20.30;99.90;;;;;;5069424;28;19997;-75
2022/10/30 09:44:28;;;;;;;;;;;20.40;99.90;;;;;;5057674;28;20577;-77
2022/10/30 09:47:05;;;;;;;;;;;20.50;99.90;;;;;;5066556;28;19929;-77
2022/10/30 09:49:48;;;;;;;;;;;20.60;99.90;;;;;;5044711;28;19933;-77
2022/10/30 09:52:26;;;;;;;;;;;20.80;99.90;;;;;;5059935;28;20023;-75
2022/10/30 09:55:05;;;;;;;;;;;21.00;99.90;;;;;;5059563;28;19928;-75
2022/10/30 09:57:35;;;;;;;;;;;21.10;99.90;;;;;;5061907;28;19933;-75
2022/10/30 10:00:05;;;;;;;;;;;21.10;99.90;;;;;;5049287;28;20071;-75
2022/10/30 10:02:49;;;;;;;;;;;21.10;99.90;;;;;;5052835;28;19936;-75
2022/10/30 10:05:22;;;;;;;;;;;21.10;99.90;;;;;;5042600;28;19932;-75
2022/10/30 10:08:15;;;;;;;;;;;21.20;99.90;;;;;;5058013;28;19937;-75
2022/10/30 10:11:03;;;;;;;;;;;21.40;99.90;;;;;;5051052;28;20310;-75
2022/10/30 10:13:33;;;;;;;;;;;21.50;99.90;;;;;;5047698;28;20567;-75
2022/10/30 10:16:05;;;;;;;;;;;21.60;99.90;;;;;;5055554;28;20496;-76
2022/10/30 10:18:35;;;;;;;;;;;21.70;99.90;;;;;;5060436;28;19933;-74
2022/10/30 10:21:11;;;;;;;;;;;21.80;99.90;;;;;;5050957;28;20456;-75
2022/10/30 10:23:43;;;;;;;;;;;21.90;99.90;;;;;;5039508;28;20022;-75
2022/10/30 10:26:18;;;;;;;;;;;21.90;99.90;;;;;;5039652;28;19929;-75
2022/10/30 10:28:53;;;;;;;;;;;22.00;99.90;;;;;;5051693;28;19928;-75
2022/10/30 10:31:25;;;;;;;;;;;22.00;99.90;;;;;;5038297;28;19937;-76
2022/10/30 10:33:59;;;;;;;;;;;22.00;99.90;;;;;;5043231;28;19995;-76
2022/10/30 10:36:34;;;;;;;;;;;22.10;99.90;;;;;;5049881;28;20313;-75
2022/10/30 10:39:07;;;;;;;;;;;22.20;99.90;;;;;;5057979;28;19939;-78
2022/10/30 10:41:44;;;;;;;;;;;22.30;99.90;;;;;;5053821;28;19964;-79
2022/10/30 10:44:17;;;;;;;;;;;22.40;99.90;;;;;;5055306;28;20312;-77
2022/10/30 10:46:52;;;;;;;;;;;22.60;99.90;;;;;;5061064;28;19933;-80
2022/10/30 10:49:26;;;;;;;;;;;22.70;99.90;;;;;;5059372;28;20337;-78
2022/10/30 10:51:55;;;;;;;;;;;22.80;99.90;;;;;;5051263;28;19933;-80
2022/10/30 10:54:28;;;;;;;;;;;22.90;99.90;;;;;;5055148;28;19925;-77
2022/10/30 10:57:00;;;;;;;;;;;22.90;99.90;;;;;;5062050;28;20380;-80
2022/10/30 10:59:33;;;;;;;;;;;23.00;99.90;;;;;;5054705;28;19943;-75
2022/10/30 11:02:14;;;;;;;;;;;23.10;99.90;;;;;;5042273;28;19968;-78
2022/10/30 11:04:43;;;;;;;;;;;23.20;99.90;;;;;;5045812;28;19929;-80
2022/10/30 11:07:18;;;;;;;;;;;23.30;99.90;;;;;;5058505;28;20340;-80
2022/10/30 11:09:47;;;;;;;;;;;23.40;99.90;;;;;;5069615;28;19933;-76
2022/10/30 11:12:14;;;;;;;;;;;23.60;99.90;;;;;;5060775;28;19963;-75
2022/10/30 11:14:41;;;;;;;;;;;23.70;99.90;;;;;;5053916;28;19925;-76
2022/10/30 11:17:13;;;;;;;;;;;23.80;99.90;;;;;;5057091;28;19932;-76
2022/10/30 11:19:42;;;;;;;;;;;23.90;99.90;;;;;;5059656;28;19932;-75
2022/10/30 11:22:17;;;;;;;;;;;23.90;99.90;;;;;;5051348;28;20000;-75
2022/10/30 11:24:46;;;;;;;;;;;24.00;99.90;;;;;;5050463;28;19933;-75
2022/10/30 11:27:17;;;;;;;;;;;24.00;99.90;;;;;;5047945;28;19932;-76
2022/10/30 11:29:48;;;;;;;;;;;24.00;99.90;;;;;;5059409;28;20058;-82
2022/10/30 11:32:18;;;;;;;;;;;23.90;99.90;;;;;;5057163;28;19933;-80
2022/10/30 11:34:45;;;;;;;;;;;23.90;99.90;;;;;;5050244;28;20436;-80
2022/10/30 11:37:29;;;;;;;;;;;23.80;99.90;;;;;;5049842;28;20154;-79
2022/10/30 11:40:03;;;;;;;;;;;23.80;99.90;;;;;;5048504;28;19935;-76
2022/10/30 11:42:30;;;;;;;;;;;24.00;99.90;;;;;;5045286;28;20012;-75
2022/10/30 11:44:57;;;;;;;;;;;24.10;99.90;;;;;;5057572;28;19970;-75
2022/10/30 11:47:28;;;;;;;;;;;24.40;99.90;;;;;;5060475;28;19932;-75
2022/10/30 11:49:57;;;;;;;;;;;24.30;99.90;;;;;;5054629;28;19932;-74
2022/10/30 11:52:25;;;;;;;;;;;24.40;99.90;;;;;;5048803;28;19932;-75
2022/10/30 11:54:53;;;;;;;;;;;24.40;99.90;;;;;;5047584;28;19928;-75
2022/10/30 11:57:23;;;;;;;;;;;24.30;99.90;;;;;;5045889;28;19925;-75
2022/10/30 11:59:51;;;;;;;;;;;24.30;99.90;;;;;;5044442;28;19929;-74
2022/10/30 12:02:22;;;;;;;;;;;24.30;99.90;;;;;;5045696;28;19929;-75
2022/10/30 12:04:50;;;;;;;;;;;24.20;99.90;;;;;;5046833;28;20006;-75
2022/10/30 12:07:28;;;;;;;;;;;24.10;99.90;;;;;;5049845;28;19925;-75
2022/10/30 12:09:58;;;;;;;;;;;24.10;99.90;;;;;;5047684;28;19932;-75
2022/10/30 12:12:30;;;;;;;;;;;24.00;99.90;;;;;;5048550;28;19932;-75
2022/10/30 12:15:07;;;;;;;;;;;23.90;99.90;;;;;;5049657;28;20369;-75
2022/10/30 12:17:33;;;;;;;;;;;23.80;99.90;;;;;;5060918;28;21177;-80
2022/10/30 12:20:00;;;;;;;;;;;23.70;99.90;;;;;;5053024;28;19959;-78
2022/10/30 12:22:29;;;;;;;;;;;23.70;99.90;;;;;;5046367;28;19944;-77
2022/10/30 12:24:57;;;;;;;;;;;23.80;99.90;;;;;;5047519;28;19929;-82
2022/10/30 12:27:24;;;;;;;;;;;23.90;99.90;;;;;;5059016;28;19939;-81
2022/10/30 12:30:00;;;;;;;;;;;23.90;99.90;;;;;;5065189;28;20412;-79
2022/10/30 12:32:32;;;;;;;;;;;24.00;99.90;;;;;;5070020;28;20394;-78
2022/10/30 12:35:00;;;;;;;;;;;24.10;99.90;;;;;;5048058;28;20340;-77
2022/10/30 12:37:29;;;;;;;;;;;24.00;99.90;;;;;;5044146;28;19940;-78
2022/10/30 12:39:58;;;;;;;;;;;24.00;99.90;;;;;;5044377;28;19933;-79
2022/10/30 12:42:25;;;;;;;;;;;24.10;99.90;;;;;;5033278;28;20015;-78
2022/10/30 12:44:55;;;;;;;;;;;24.10;99.90;;;;;;5045007;28;20306;-77
2022/10/30 12:47:26;;;;;;;;;;;24.20;99.90;;;;;;5049467;28;19929;-78
2022/10/30 12:49:54;;;;;;;;;;;24.10;99.90;;;;;;5048212;28;20378;-78
2022/10/30 12:52:24;;;;;;;;;;;24.10;99.90;;;;;;5057022;28;19978;-78
2022/10/30 12:54:52;;;;;;;;;;;24.00;99.90;;;;;;5066721;28;19932;-78
2022/10/30 12:57:21;;;;;;;;;;;23.80;99.90;;;;;;5047671;28;19983;-79
2022/10/30 12:59:54;;;;;;;;;;;23.80;99.90;;;;;;5044673;28;19932;-77
2022/10/30 13:02:26;;;;;;;;;;;23.70;99.90;;;;;;5039789;28;19929;-78
2022/10/30 13:04:56;;;;;;;;;;;23.70;99.90;;;;;;5034695;28;19929;-76
2022/10/30 13:07:23;;;;;;;;;;;;;;;;;;5044321;28;19998;-78
2022/10/30 13:09:56;;;;;;;;;;;23.60;99.90;;;;;;5045701;28;19954;-78
2022/10/30 13:12:25;;;;;;;;;;;23.50;99.90;;;;;;5047391;28;19987;-75
2022/10/30 13:14:54;;;;;;;;;;;23.50;99.90;;;;;;5060553;28;19954;-75
2022/10/30 13:17:21;;;;;;;;;;;23.50;99.90;;;;;;5059289;28;19952;-75
2022/10/30 13:19:49;;;;;;;;;;;23.40;99.90;;;;;;5056641;28;19932;-75
2022/10/30 13:22:19;;;;;;;;;;;23.40;99.90;;;;;;5060509;28;20003;-75
2022/10/30 13:24:49;;;;;;;;;;;23.30;99.90;;;;;;5053050;28;19933;-75
2022/10/30 13:27:21;;;;;;;;;;;23.30;99.90;;;;;;5045702;28;20426;-75
2022/10/30 13:29:54;;;;;;;;;;;23.20;99.90;;;;;;5051685;28;19940;-75
2022/10/30 13:32:29;;;;;;;;;;;23.20;99.90;;;;;;5055914;28;19932;-75
2022/10/30 13:35:01;;;;;;;;;;;23.10;99.90;;;;;;5051483;28;19975;-75
2022/10/30 13:37:31;;;;;;;;;;;23.10;99.90;;;;;;5049777;28;19929;-75
2022/10/30 13:40:04;;;;;;;;;;;23.10;99.90;;;;;;5063171;28;19928;-75
2022/10/30 13:42:47;;;;;;;;;;;23.00;99.90;;;;;;5047984;28;19925;-75
2022/10/30 13:45:31;;;;;;;;;;;23.00;99.90;;;;;;5047403;28;19928;-75
2022/10/30 13:48:04;;;;;;;;;;;23.00;99.90;;;;;;5056495;28;19939;-75
2022/10/30 13:50:41;;;;;;;;;;;23.00;99.90;;;;;;5058200;28;20378;-76
2022/10/30 13:53:11;;;;;;;;;;;23.00;99.90;;;;;;5046791;28;19929;-75
2022/10/30 13:55:40;;;;;;;;;;;23.10;99.90;;;;;;5067634;28;19974;-75
2022/10/30 13:58:11;;;;;;;;;;;23.10;99.90;;;;;;5075039;28;19933;-75
2022/10/30 14:00:53;;;;;;;;;;;23.10;99.90;;;;;;5038315;28;19935;-75
2022/10/30 14:03:28;;;;;;;;;;;23.10;99.90;;;;;;5042692;28;19982;-76
2022/10/30 14:06:02;;;;;;;;;;;23.10;99.90;;;;;;5074666;28;20305;-75
2022/10/30 14:08:33;;;;;;;;;;;21.60;99.90;;;;;;5600979;22;20295;-76
2022/10/30 14:11:00;;;;;;;;;;;23.20;99.90;;;;;;5084165;28;19927;-76
2022/10/30 14:13:27;;;;;;;;;;;23.20;99.90;;;;;;5078127;28;20357;-77
2022/10/30 14:15:55;;;;;;;;;;;23.20;99.90;;;;;;5084066;28;20038;-74
2022/10/30 14:18:24;;;;;;;;;;;23.10;99.90;;;;;;5087457;28;20305;-76
2022/10/30 14:20:51;;;;;;;;;;;23.10;99.90;;;;;;5083405;28;19981;-74
2022/10/30 14:23:22;;;;;;;;;;;23.00;99.90;;;;;;5100114;22;19927;-77
2022/10/30 14:26:10;;;;;;;;;;;23.00;99.90;;;;;;5111157;28;19923;-79
2022/10/30 14:28:38;;;;;;;;;;;23.00;99.90;;;;;;5115492;27;19924;-78
2022/10/30 14:31:06;;;;;;;;;;;22.90;99.90;;;;;;5130506;27;19928;-80
2022/10/30 14:33:42;;;;;;;;;;;22.90;99.90;;;;;;5127415;28;19940;-80
2022/10/30 14:36:13;;;;;;;;;;;22.90;99.90;;;;;;5119631;28;19924;-79
2022/10/30 14:38:41;;;;;;;;;;;22.80;99.90;;;;;;5112924;28;19928;-78
2022/10/30 14:41:30;;;;;;;;;;;22.70;99.90;;;;;;5114650;28;19932;-79
2022/10/30 14:44:16;;;;;;;;;;;22.60;99.90;;;;;;5116685;28;20003;-79